Time;durP1;ratioP1;P1;durP2;ratioP2;P2;SDS_P1;SDS_P2;PMS_P1;PMS_P2;Temp;Humidity;BMP_temperature;BMP_pressure;BME280_temperature;BME280_humidity;BME280_pressure;Samples;Min_cycle;Max_cycle;Signal;HPM_P1;HPM_P2
2022/11/17 00:01:09;;;;;;;25.70;16.13;;;7.60;99.90;;;;;;5053360;28;20106;-35
2022/11/17 00:03:35;;;;;;;24.55;17.38;;;7.70;99.90;;;;;;5054139;28;20053;-34
2022/11/17 00:06:05;;;;;;;27.10;16.27;;;7.60;99.90;;;;;;5053359;28;20049;-35
2022/11/17 00:08:31;;;;;;;24.23;16.15;;;7.60;99.90;;;;;;5054106;28;20084;-36
2022/11/17 00:11:01;;;;;;;26.02;15.60;;;7.60;99.90;;;;;;5053801;28;20449;-35
2022/11/17 00:16:13;;;;;;;23.35;15.43;;;7.60;99.90;;;;;;5053221;28;20055;-36
2022/11/17 00:21:25;;;;;;;22.80;14.52;;;7.60;99.90;;;;;;5057120;28;20123;-36
2022/11/17 00:23:52;;;;;;;24.50;15.43;;;7.60;99.90;;;;;;5089897;28;20048;-34
2022/11/17 00:26:26;;;;;;;27.10;17.13;;;7.60;99.90;;;;;;5089820;28;20045;-34
2022/11/17 00:28:59;;;;;;;20.23;15.25;;;7.60;99.90;;;;;;5056950;28;20041;-35
2022/11/17 00:34:20;;;;;;;19.65;14.15;;;7.60;99.90;;;;;;5056702;28;20476;-35
2022/11/17 00:36:49;;;;;;;20.25;13.85;;;7.60;99.90;;;;;;5056300;28;20180;-36
2022/11/17 00:39:16;;;;;;;19.23;12.98;;;7.60;99.90;;;;;;5056711;28;20049;-35
2022/11/17 00:41:42;;;;;;;20.40;13.55;;;7.70;99.90;;;;;;5056517;28;20056;-34
2022/11/17 00:44:08;;;;;;;17.80;13.18;;;7.60;99.90;;;;;;5056619;28;20136;-37
2022/11/17 00:46:35;;;;;;;18.08;13.95;;;7.60;99.90;;;;;;5056589;28;20120;-34
2022/11/17 00:49:02;;;;;;;20.27;13.20;;;7.60;99.90;;;;;;5056182;28;20356;-34
2022/11/17 00:51:28;;;;;;;21.25;13.05;;;7.60;99.90;;;;;;5056472;28;20056;-33
2022/11/17 00:53:54;;;;;;;20.38;13.00;;;7.60;99.90;;;;;;5055174;28;20056;-34
2022/11/17 00:56:20;;;;;;;16.35;12.98;;;7.60;99.90;;;;;;5056872;28;20040;-34
2022/11/17 00:58:46;;;;;;;18.63;12.18;;;7.60;99.90;;;;;;5056878;28;20106;-34
2022/11/17 01:01:12;;;;;;;17.85;13.25;;;7.60;99.90;;;;;;5056302;28;20143;-34
2022/11/17 01:03:37;;;;;;;18.90;11.63;;;7.60;99.90;;;;;;5056782;28;20056;-34
2022/11/17 01:06:06;;;;;;;13.27;10.75;;;7.70;99.90;;;;;;5056777;28;20413;-35
2022/11/17 01:08:31;;;;;;;19.92;12.77;;;7.70;99.90;;;;;;5056175;28;20056;-36
2022/11/17 01:11:08;;;;;;;16.83;11.75;;;7.70;99.90;;;;;;5056117;28;20041;-33
2022/11/17 01:13:34;;;;;;;16.85;11.95;;;7.60;99.90;;;;;;5055138;28;20099;-34
2022/11/17 01:16:09;;;;;;;20.23;13.30;;;7.60;99.90;;;;;;5055635;28;20049;-33
2022/11/17 01:18:35;;;;;;;17.67;13.13;;;7.70;99.90;;;;;;5056587;28;20041;-34
2022/11/17 01:21:28;;;;;;;13.50;11.80;;;7.60;99.90;;;;;;5056511;28;20502;-33
2022/11/17 01:23:55;;;;;;;17.25;11.57;;;7.60;99.90;;;;;;5054736;28;20057;-34
2022/11/17 01:26:24;;;;;;;14.50;10.98;;;7.60;99.90;;;;;;5054896;28;20139;-33
2022/11/17 01:28:50;;;;;;;18.75;12.00;;;7.60;99.90;;;;;;5055743;28;20045;-33
2022/11/17 01:31:18;;;;;;;15.65;11.32;;;7.60;99.90;;;;;;5055619;28;20045;-33
2022/11/17 01:33:46;;;;;;;18.45;12.18;;;7.60;99.90;;;;;;5055664;28;20069;-33
2022/11/17 01:36:20;;;;;;;17.58;11.15;;;7.60;99.90;;;;;;5055418;28;20065;-33
2022/11/17 01:38:46;;;;;;;16.63;12.77;;;7.60;99.90;;;;;;5055237;28;20052;-33
2022/11/17 01:41:18;;;;;;;19.15;12.77;;;7.50;99.90;;;;;;5054870;28;20052;-33
2022/11/17 01:43:48;;;;;;;14.77;11.90;;;7.50;99.90;;;;;;5055777;28;20127;-34
2022/11/17 01:46:38;;;;;;;15.35;10.57;;;7.50;99.90;;;;;;5055415;28;20065;-33
2022/11/17 01:49:15;;;;;;;15.05;11.00;;;7.50;99.90;;;;;;5056038;28;20048;-33
2022/11/17 01:51:46;;;;;;;16.42;11.73;;;7.50;99.90;;;;;;5055406;28;20521;-33
2022/11/17 01:54:16;;;;;;;13.55;11.02;;;7.50;99.90;;;;;;5055680;28;20048;-34
2022/11/17 01:56:46;;;;;;;17.13;11.15;;;7.50;99.90;;;;;;5055797;28;20448;-34
2022/11/17 01:59:28;;;;;;;16.33;11.82;;;7.40;99.90;;;;;;5055755;28;20055;-33
2022/11/17 02:01:54;;;;;;;15.35;11.80;;;7.40;99.90;;;;;;5088661;28;20489;-34
2022/11/17 02:04:27;;;;;;;17.30;12.30;;;7.40;99.90;;;;;;5055710;28;20049;-33
2022/11/17 02:06:59;;;;;;;15.93;11.73;;;7.40;99.90;;;;;;5054145;28;20053;-33
2022/11/17 02:09:26;;;;;;;16.45;12.20;;;7.40;99.90;;;;;;5055369;28;20045;-33
2022/11/17 02:11:52;;;;;;;16.90;12.05;;;7.40;99.90;;;;;;5054586;28;20501;-33
2022/11/17 02:14:18;;;;;;;16.55;12.38;;;7.40;99.90;;;;;;5053961;28;20084;-34
2022/11/17 02:16:43;;;;;;;14.20;11.13;;;7.40;99.90;;;;;;5037142;28;20076;-32
2022/11/17 02:19:13;;;;;;;15.88;11.77;;;7.40;99.90;;;;;;5054823;28;20512;-33
2022/11/17 02:21:54;;;;;;;14.65;11.57;;;7.30;99.90;;;;;;5055132;28;20487;-33
2022/11/17 02:24:48;;;;;;;20.13;13.15;;;7.30;99.90;;;;;;5054980;28;20060;-43
2022/11/17 02:27:41;;;;;;;17.30;12.43;;;7.30;99.90;;;;;;5054646;28;20136;-43
2022/11/17 02:30:11;;;;;;;14.60;11.30;;;7.30;99.90;;;;;;5054091;28;20053;-43
2022/11/17 02:32:42;;;;;;;16.17;11.95;;;7.30;99.90;;;;;;5055172;28;20077;-43
2022/11/17 02:35:49;;;;;;;16.13;12.05;;;7.40;99.90;;;;;;5055104;28;20045;-42
2022/11/17 02:38:18;;;;;;;17.15;12.70;;;7.30;99.90;;;;;;5054384;28;20064;-43
2022/11/17 02:41:06;;;;;;;18.67;14.75;;;7.30;99.90;;;;;;5054009;28;20452;-42
2022/11/17 02:46:30;;;;;;;23.92;15.82;;;7.20;99.90;;;;;;5054661;28;20059;-43
2022/11/17 02:49:01;;;;;;;19.70;14.88;;;7.20;99.90;;;;;;5054847;28;20140;-43
2022/11/17 02:51:28;;;;;;;18.60;13.90;;;7.10;99.90;;;;;;5054027;28;20483;-43
2022/11/17 02:53:56;;;;;;;20.02;15.65;;;7.10;99.90;;;;;;5053236;28;20398;-43
2022/11/17 02:56:22;;;;;;;22.95;16.27;;;7.20;99.90;;;;;;5054893;28;20124;-43
2022/11/17 02:58:56;;;;;;;23.23;15.60;;;7.10;99.90;;;;;;5054140;28;20103;-46
2022/11/17 03:01:40;;;;;;;25.27;17.00;;;7.10;99.90;;;;;;5054434;28;20170;-43
2022/11/17 03:04:11;;;;;;;19.67;15.95;;;7.00;99.90;;;;;;5054640;28;20060;-43
2022/11/17 03:07:17;;;;;;;22.98;17.52;;;7.00;99.90;;;;;;5052442;28;20052;-43
2022/11/17 03:10:03;;;;;;;24.48;17.48;;;7.00;99.90;;;;;;4985421;28;21104;-47
2022/11/17 03:12:28;;;;;;;28.25;19.05;;;7.00;99.90;;;;;;5054656;28;20123;-40
2022/11/17 03:15:55;;;;;;;24.52;18.77;;;6.90;99.90;;;;;;5053452;28;20636;-41
2022/11/17 03:18:26;;;;;;;35.53;20.88;;;6.90;99.90;;;;;;5054351;28;20055;-38
2022/11/17 03:21:25;;;;;;;28.70;19.58;;;6.90;99.90;;;;;;5053821;28;20080;-40
2022/11/17 03:24:21;;;;;;;30.10;21.48;;;6.90;99.90;;;;;;5054616;28;20098;-38
2022/11/17 03:26:57;;;;;;;27.45;20.38;;;6.90;99.90;;;;;;5034501;28;20055;-37
2022/11/17 03:29:26;;;;;;;27.98;20.48;;;6.90;99.90;;;;;;5053742;28;20040;-34
2022/11/17 03:31:57;;;;;;;24.73;18.38;;;6.80;99.90;;;;;;5053640;28;20514;-33
2022/11/17 03:34:26;;;;;;;25.52;18.13;;;6.80;99.90;;;;;;5054238;28;20045;-40
2022/11/17 03:36:57;;;;;;;28.67;20.48;;;6.80;99.90;;;;;;5053984;28;20068;-42
2022/11/17 03:39:46;;;;;;;31.10;21.25;;;6.70;99.90;;;;;;5054439;28;20076;-42
2022/11/17 03:42:51;;;;;;;30.60;20.60;;;6.70;99.90;;;;;;5052385;28;20085;-42
2022/11/17 03:45:20;;;;;;;28.65;19.88;;;6.80;99.90;;;;;;5048053;28;20060;-41
2022/11/17 03:47:54;;;;;;;24.92;18.80;;;6.70;99.90;;;;;;5054258;28;20045;-41
2022/11/17 03:50:26;;;;;;;24.55;18.15;;;6.70;99.90;;;;;;5054442;28;20053;-41
2022/11/17 03:52:53;;;;;;;27.33;19.65;;;6.70;99.90;;;;;;5056912;28;20507;-41
2022/11/17 03:55:20;;;;;;;23.00;16.77;;;6.70;99.90;;;;;;5056837;28;20044;-40
2022/11/17 03:58:15;;;;;;;25.40;17.10;;;6.70;99.90;;;;;;5058029;28;20091;-41
2022/11/17 04:00:42;;;;;;;26.23;19.10;;;6.70;99.90;;;;;;5058070;28;20391;-40
2022/11/17 04:03:07;;;;;;;24.58;17.35;;;6.70;99.90;;;;;;5057419;28;20049;-40
2022/11/17 04:05:33;;;;;;;27.85;20.40;;;6.70;99.90;;;;;;5056177;28;20058;-38
2022/11/17 04:07:59;;;;;;;28.45;18.27;;;6.60;99.90;;;;;;5057337;28;20041;-40
2022/11/17 04:10:25;;;;;;;23.92;18.65;;;6.60;99.90;;;;;;5055991;28;20059;-41
2022/11/17 04:18:21;;;;;;;25.02;18.98;;;6.50;99.90;;;;;;5057723;28;20060;-41
2022/11/17 04:20:53;;;;;;;27.35;19.83;;;6.50;99.90;;;;;;5057003;28;20081;-41
2022/11/17 04:23:19;;;;;;;26.63;19.92;;;6.50;99.90;;;;;;5056985;28;20044;-41
2022/11/17 04:28:37;;;;;;;25.70;16.73;;;6.70;99.90;;;;;;5056626;28;20053;-41
2022/11/17 04:31:04;;;;;;;;;;;6.40;99.90;;;;;;5057627;28;20139;-41
2022/11/17 04:33:30;;;;;;;23.20;16.33;;;6.50;99.90;;;;;;5055583;28;19967;-37
2022/11/17 04:35:56;;;;;;;27.10;20.65;;;6.50;99.90;;;;;;5088891;28;20056;-42
2022/11/17 04:38:22;;;;;;;26.08;19.23;;;6.40;99.90;;;;;;5055575;28;20055;-41
2022/11/17 04:43:31;;;;;;;21.05;17.42;;;6.40;99.90;;;;;;5056736;28;20060;-39
2022/11/17 04:45:59;;;;;;;21.92;16.08;;;6.40;99.90;;;;;;5056601;28;20041;-36
2022/11/17 04:48:25;;;;;;;24.67;16.67;;;6.40;99.90;;;;;;5088882;28;20056;-37
2022/11/17 04:50:57;;;;;;;27.33;19.63;;;6.30;99.90;;;;;;5055623;28;20394;-40
2022/11/17 04:53:23;;;;;;;24.17;17.58;;;6.30;99.90;;;;;;5056546;28;20449;-38
2022/11/17 04:55:49;;;;;;;29.23;21.55;;;6.30;99.90;;;;;;5055163;28;20080;-40
2022/11/17 04:58:16;;;;;;;27.55;18.98;;;6.30;99.90;;;;;;5073112;28;20045;-39
2022/11/17 05:00:41;;;;;;;22.42;17.52;;;6.40;99.90;;;;;;5056358;28;20045;-38
2022/11/17 05:03:07;;;;;;;24.10;16.33;;;6.30;99.90;;;;;;5055262;28;20055;-39
2022/11/17 05:05:33;;;;;;;21.35;15.85;;;6.30;99.90;;;;;;5056291;28;20080;-41
2022/11/17 05:07:59;;;;;;;22.25;16.98;;;6.30;99.90;;;;;;5057026;28;20045;-39
2022/11/17 05:13:25;;;;;;;24.23;18.35;;;6.30;99.90;;;;;;5056078;28;20132;-41
2022/11/17 05:18:43;;;;;;;23.10;16.65;;;6.20;99.90;;;;;;5056634;28;20057;-41
2022/11/17 05:21:10;;;;;;;25.83;18.40;;;6.20;99.90;;;;;;5055954;28;20045;-40
2022/11/17 05:23:54;;;;;;;24.88;19.33;;;6.20;99.90;;;;;;5055882;28;20484;-41
2022/11/17 05:26:23;;;;;;;26.00;18.88;;;6.20;99.90;;;;;;5056759;28;20063;-40
2022/11/17 05:28:48;;;;;;;25.92;18.95;;;6.20;99.90;;;;;;5055803;28;20049;-40
2022/11/17 05:31:15;;;;;;;24.60;18.52;;;6.20;99.90;;;;;;5055764;28;20051;-41
2022/11/17 05:33:41;;;;;;;22.67;18.25;;;6.10;99.90;;;;;;5055756;28;20130;-40
2022/11/17 05:36:07;;;;;;;21.60;16.55;;;6.20;99.90;;;;;;5054327;28;20082;-41
2022/11/17 05:38:33;;;;;;;18.27;14.23;;;6.10;99.90;;;;;;5055671;28;20041;-40
2022/11/17 05:41:00;;;;;;;21.05;16.48;;;6.10;99.90;;;;;;5056103;28;20406;-42
2022/11/17 05:43:26;;;;;;;20.45;16.75;;;6.00;99.90;;;;;;5037836;28;20502;-42
2022/11/17 05:45:53;;;;;;;24.08;16.67;;;6.00;99.90;;;;;;5055180;28;20376;-41
2022/11/17 05:48:19;;;;;;;22.27;17.42;;;6.10;99.90;;;;;;5054223;28;20106;-41
2022/11/17 05:50:45;;;;;;;23.95;17.42;;;6.00;99.90;;;;;;5055341;28;20084;-42
2022/11/17 05:53:10;;;;;;;19.98;15.82;;;6.00;99.90;;;;;;5055284;28;20096;-41
2022/11/17 05:55:36;;;;;;;21.25;16.20;;;6.10;99.90;;;;;;5055212;28;20048;-41
2022/11/17 05:58:24;;;;;;;22.75;17.30;;;6.00;99.90;;;;;;5055343;28;20041;-40
2022/11/17 06:00:51;;;;;;;18.02;15.63;;;6.10;99.90;;;;;;5055534;28;20052;-39
2022/11/17 06:03:27;;;;;;;17.02;14.48;;;6.10;99.90;;;;;;5055162;28;20045;-41
2022/11/17 06:05:53;;;;;;;24.42;17.55;;;6.10;99.90;;;;;;5055818;28;20143;-41
2022/11/17 06:08:21;;;;;;;19.58;15.00;;;6.00;99.90;;;;;;5053918;28;20511;-42
2022/11/17 06:10:47;;;;;;;19.98;14.65;;;6.00;99.90;;;;;;5054996;28;20045;-42
2022/11/17 06:13:13;;;;;;;16.10;14.30;;;6.00;99.90;;;;;;5054955;28;20041;-42
2022/11/17 06:15:38;;;;;;;16.25;13.63;;;6.10;99.90;;;;;;5054036;28;20044;-43
2022/11/17 06:18:10;;;;;;;17.73;13.95;;;6.00;99.90;;;;;;5054208;28;20518;-42
2022/11/17 06:20:52;;;;;;;18.33;14.88;;;6.00;99.90;;;;;;5054026;28;20467;-42
2022/11/17 06:23:20;;;;;;;19.75;14.95;;;6.00;99.90;;;;;;5055657;28;20057;-43
2022/11/17 06:25:47;;;;;;;16.38;13.80;;;6.00;99.90;;;;;;5055251;28;20052;-43
2022/11/17 06:28:20;;;;;;;15.30;12.70;;;5.90;99.90;;;;;;5053740;28;20095;-43
2022/11/17 06:30:47;;;;;;;16.60;14.23;;;6.00;99.90;;;;;;5037397;28;20044;-44
2022/11/17 06:33:16;;;;;;;16.77;13.60;;;5.90;99.90;;;;;;5054632;28;20411;-40
2022/11/17 06:35:44;;;;;;;14.48;12.02;;;6.00;99.90;;;;;;5054178;28;20053;-40
2022/11/17 06:38:09;;;;;;;16.83;12.82;;;6.00;99.90;;;;;;5052914;28;20381;-40
2022/11/17 06:40:35;;;;;;;15.43;12.43;;;6.00;99.90;;;;;;5053439;28;20055;-40
2022/11/17 06:43:08;;;;;;;14.90;12.52;;;6.00;99.90;;;;;;5054440;28;20127;-40
2022/11/17 06:45:35;;;;;;;17.05;13.45;;;6.00;99.90;;;;;;5054454;28;20049;-40
2022/11/17 06:48:02;;;;;;;12.40;10.60;;;6.00;99.90;;;;;;5054279;28;20060;-40
2022/11/17 06:50:27;;;;;;;14.20;11.45;;;5.90;99.90;;;;;;5054172;28;20501;-40
2022/11/17 06:52:58;;;;;;;14.52;11.98;;;6.00;99.90;;;;;;5054245;28;20124;-41
2022/11/17 06:55:24;;;;;;;12.57;10.38;;;5.90;99.90;;;;;;5036277;28;20049;-40
2022/11/17 06:57:51;;;;;;;15.68;11.32;;;5.90;99.90;;;;;;5054147;28;20052;-40
2022/11/17 07:00:17;;;;;;;10.82;9.23;;;6.00;99.90;;;;;;5054095;28;20049;-40
2022/11/17 07:02:43;;;;;;;10.90;9.50;;;5.90;99.90;;;;;;5037057;28;20387;-40
2022/11/17 07:05:09;;;;;;;12.02;10.10;;;5.90;99.90;;;;;;5054044;28;20037;-40
2022/11/17 07:07:34;;;;;;;11.63;9.68;;;5.90;99.90;;;;;;5054532;28;20068;-40
2022/11/17 07:10:00;;;;;;;11.65;9.75;;;6.00;99.90;;;;;;5053992;28;20515;-41
2022/11/17 07:12:26;;;;;;;12.18;10.50;;;5.90;99.90;;;;;;5053814;28;20481;-40
2022/11/17 07:14:52;;;;;;;11.00;9.27;;;5.90;99.90;;;;;;5053638;28;20053;-41
2022/11/17 07:17:17;;;;;;;12.50;8.98;;;5.90;99.90;;;;;;5053853;28;20110;-40
2022/11/17 07:19:43;;;;;;;13.60;9.48;;;5.80;99.90;;;;;;5053772;28;20048;-41
2022/11/17 07:22:08;;;;;;;12.75;9.13;;;5.80;99.90;;;;;;5054863;28;20045;-41
2022/11/17 07:24:34;;;;;;;11.23;9.00;;;5.90;99.90;;;;;;5053717;28;20084;-41
2022/11/17 07:27:00;;;;;;;11.48;9.48;;;5.80;99.90;;;;;;5053939;28;20045;-41
2022/11/17 07:29:27;;;;;;;11.02;9.30;;;5.90;99.90;;;;;;5052702;28;20085;-41
2022/11/17 07:31:53;;;;;;;11.30;8.95;;;5.80;99.90;;;;;;5054257;28;20055;-41
2022/11/17 07:34:19;;;;;;;9.05;8.10;;;5.90;99.90;;;;;;5053583;28;20040;-41
2022/11/17 07:36:45;;;;;;;11.63;8.80;;;5.90;99.90;;;;;;5053541;28;20060;-42
2022/11/17 07:39:11;;;;;;;11.73;9.02;;;5.90;99.90;;;;;;5054072;28;20048;-42
2022/11/17 07:41:37;;;;;;;10.13;8.52;;;6.00;99.90;;;;;;5053782;28;20052;-41
2022/11/17 07:44:10;;;;;;;12.30;8.52;;;5.90;99.90;;;;;;5053505;28;20548;-42
2022/11/17 07:46:36;;;;;;;12.13;8.85;;;5.90;99.90;;;;;;5053497;28;20037;-41
2022/11/17 07:49:02;;;;;;;11.43;8.93;;;5.90;99.90;;;;;;5052352;28;20052;-42
2022/11/17 07:51:28;;;;;;;10.50;8.80;;;5.90;99.90;;;;;;5052510;28;20388;-42
2022/11/17 07:53:53;;;;;;;11.35;8.80;;;6.00;99.90;;;;;;5053400;28;20083;-41
2022/11/17 07:56:19;;;;;;;8.77;7.45;;;6.00;99.90;;;;;;5052121;28;20044;-40
2022/11/17 07:58:45;;;;;;;11.98;9.65;;;6.00;99.90;;;;;;5053608;28;20129;-38
2022/11/17 08:01:14;;;;;;;12.38;9.52;;;5.90;99.90;;;;;;5052159;28;20078;-34
2022/11/17 08:03:40;;;;;;;9.80;7.57;;;5.90;99.90;;;;;;5052637;28;20090;-38
2022/11/17 08:06:08;;;;;;;10.52;8.48;;;6.00;99.90;;;;;;5053297;28;20119;-39
2022/11/17 08:08:36;;;;;;;10.05;8.45;;;5.90;99.90;;;;;;5053292;28;20049;-40
2022/11/17 08:11:03;;;;;;;10.95;8.52;;;6.00;99.90;;;;;;5053272;28;20047;-40
2022/11/17 08:13:29;;;;;;;10.00;8.45;;;6.00;99.90;;;;;;5053142;28;20053;-41
2022/11/17 08:15:56;;;;;;;10.60;8.32;;;6.00;99.90;;;;;;5053122;28;20392;-40
2022/11/17 08:18:22;;;;;;;9.90;6.97;;;6.00;99.90;;;;;;5052264;28;20056;-41
2022/11/17 08:20:48;;;;;;;8.98;7.10;;;6.00;99.90;;;;;;5052045;28;20049;-41
2022/11/17 08:23:13;;;;;;;8.80;7.35;;;6.00;99.90;;;;;;5085769;28;20041;-41
2022/11/17 08:25:39;;;;;;;8.30;7.43;;;6.00;99.90;;;;;;5053169;28;20095;-40
2022/11/17 08:28:05;;;;;;;10.02;7.30;;;6.00;99.90;;;;;;5053077;28;20529;-41
2022/11/17 08:30:33;;;;;;;9.80;7.18;;;6.10;99.90;;;;;;5052805;28;20045;-41
2022/11/17 08:33:00;;;;;;;8.73;6.18;;;6.00;99.90;;;;;;5053060;28;20147;-41
2022/11/17 08:35:25;;;;;;;7.72;6.55;;;6.00;99.90;;;;;;5053028;28;20402;-41
2022/11/17 08:37:52;;;;;;;10.73;7.95;;;6.10;99.90;;;;;;5051654;28;20052;-40
2022/11/17 08:40:18;;;;;;;9.32;6.95;;;6.10;99.90;;;;;;5056730;28;20554;-39
2022/11/17 08:42:44;;;;;;;8.25;6.90;;;6.10;99.90;;;;;;5056785;28;20098;-41
2022/11/17 08:45:11;;;;;;;9.27;7.03;;;6.10;99.90;;;;;;5056653;28;20041;-40
2022/11/17 08:47:37;;;;;;;8.30;6.88;;;6.10;99.90;;;;;;5055445;28;20045;-38
2022/11/17 08:50:04;;;;;;;9.05;7.13;;;6.10;99.90;;;;;;5056464;28;20048;-38
2022/11/17 08:52:30;;;;;;;9.60;7.05;;;6.20;99.90;;;;;;5056513;28;20044;-35
2022/11/17 08:54:56;;;;;;;9.60;7.63;;;6.20;99.90;;;;;;5055976;28;20049;-39
2022/11/17 08:57:21;;;;;;;10.05;7.68;;;6.20;99.90;;;;;;5056410;28;20044;-38
2022/11/17 08:59:48;;;;;;;10.25;8.43;;;6.20;99.90;;;;;;5056047;28;20049;-35
2022/11/17 09:02:14;;;;;;;14.18;10.07;;;6.20;99.90;;;;;;5055132;28;20095;-35
2022/11/17 09:04:39;;;;;;;9.45;7.72;;;6.20;99.90;;;;;;5056243;28;20045;-35
2022/11/17 09:07:05;;;;;;;10.27;9.15;;;6.20;99.90;;;;;;5056204;28;20052;-37
2022/11/17 09:09:32;;;;;;;10.52;8.30;;;6.10;99.90;;;;;;5055232;28;20560;-38
2022/11/17 09:11:59;;;;;;;10.18;7.88;;;6.20;99.90;;;;;;5055433;28;20102;-37
2022/11/17 09:14:25;;;;;;;12.23;9.48;;;6.20;99.90;;;;;;5055199;28;20044;-35
2022/11/17 09:16:51;;;;;;;12.88;9.30;;;6.20;99.90;;;;;;5055960;28;20178;-35
2022/11/17 09:19:17;;;;;;;10.88;8.55;;;6.20;99.90;;;;;;5056577;28;20132;-34
2022/11/17 09:21:43;;;;;;;13.68;9.45;;;6.20;99.90;;;;;;5056525;28;20106;-34
2022/11/17 09:24:09;;;;;;;10.80;9.50;;;6.20;99.90;;;;;;5056747;28;20044;-36
2022/11/17 09:26:39;;;;;;;11.35;9.95;;;6.20;99.90;;;;;;5038292;28;20182;-36
2022/11/17 09:29:06;;;;;;;12.38;9.65;;;6.20;99.90;;;;;;5056426;28;20403;-38
2022/11/17 09:31:32;;;;;;;13.05;9.30;;;6.20;99.90;;;;;;5054806;28;20060;-36
2022/11/17 09:33:57;;;;;;;11.40;9.95;;;6.10;99.90;;;;;;5056327;28;20053;-37
2022/11/17 09:36:23;;;;;;;11.32;9.23;;;6.20;99.90;;;;;;5055332;28;20060;-39
2022/11/17 09:38:49;;;;;;;12.40;10.63;;;6.20;99.90;;;;;;5054658;28;20047;-38
2022/11/17 09:41:15;;;;;;;12.38;9.82;;;6.10;99.90;;;;;;5055614;28;20056;-38
2022/11/17 09:43:55;;;;;;;9.95;8.13;;;6.20;99.90;;;;;;5055576;28;20040;-38
2022/11/17 09:46:48;;;;;;;12.73;9.50;;;6.20;99.90;;;;;;5055330;28;20128;-39
2022/11/17 09:49:42;;;;;;;9.77;8.13;;;6.20;99.90;;;;;;5055389;28;20045;-38
2022/11/17 09:52:31;;;;;;;10.48;7.93;;;6.20;99.90;;;;;;5055324;28;20048;-37
2022/11/17 09:55:01;;;;;;;12.40;7.93;;;6.20;99.90;;;;;;5055334;28;20052;-39
2022/11/17 09:57:41;;;;;;;12.43;9.32;;;6.20;99.90;;;;;;5055310;28;20049;-39
2022/11/17 10:00:19;;;;;;;12.18;8.55;;;6.20;99.90;;;;;;5055304;28;20091;-40
2022/11/17 10:02:45;;;;;;;14.07;10.30;;;6.20;99.90;;;;;;5054014;28;20075;-35
2022/11/17 10:05:19;;;;;;;10.10;8.50;;;6.20;99.90;;;;;;5055150;28;20041;-39
2022/11/17 10:07:51;;;;;;;11.57;9.35;;;6.20;99.90;;;;;;5053941;28;20049;-36
2022/11/17 10:10:21;;;;;;;13.05;9.90;;;6.30;99.90;;;;;;5054982;28;20124;-36
2022/11/17 10:12:54;;;;;;;12.50;9.40;;;6.20;99.90;;;;;;5054958;28;20053;-35
2022/11/17 10:15:26;;;;;;;13.40;9.73;;;6.20;99.90;;;;;;5054086;28;20159;-35
2022/11/17 10:17:52;;;;;;;10.55;8.80;;;6.20;99.90;;;;;;5054977;28;20131;-35
2022/11/17 10:20:18;;;;;;;10.20;8.75;;;6.20;99.90;;;;;;5055144;28;20140;-35
2022/11/17 10:22:46;;;;;;;10.70;8.43;;;6.20;99.90;;;;;;5054141;28;20055;-34
2022/11/17 10:25:59;;;;;;;11.43;9.55;;;6.30;99.90;;;;;;5036694;28;20045;-36
2022/11/17 10:28:27;;;;;;;12.55;9.38;;;6.20;99.90;;;;;;5052948;28;20067;-35
2022/11/17 10:31:09;;;;;;;11.70;7.90;;;6.30;99.90;;;;;;5054662;28;20052;-36
2022/11/17 10:33:48;;;;;;;13.05;9.65;;;6.30;99.90;;;;;;5054954;28;20060;-35
2022/11/17 10:36:29;;;;;;;13.20;10.13;;;6.30;99.90;;;;;;5054944;28;20055;-34
2022/11/17 10:38:56;;;;;;;11.32;9.85;;;6.40;99.90;;;;;;5054431;28;20489;-36
2022/11/17 10:41:44;;;;;;;11.65;9.27;;;6.40;99.90;;;;;;5054479;28;20045;-35
2022/11/17 10:44:26;;;;;;;12.88;9.45;;;6.40;99.90;;;;;;5055085;28;20364;-35
2022/11/17 10:47:00;;;;;;;10.50;8.40;;;6.50;99.90;;;;;;5054334;28;20056;-35
2022/11/17 10:49:29;;;;;;;11.65;8.70;;;6.40;99.90;;;;;;5055180;28;20053;-34
2022/11/17 10:52:10;;;;;;;11.60;9.40;;;6.40;99.90;;;;;;5055097;28;20136;-34
2022/11/17 10:54:37;;;;;;;9.65;8.60;;;6.40;99.90;;;;;;5054201;28;20049;-35
2022/11/17 10:57:25;;;;;;;14.27;10.57;;;6.40;99.90;;;;;;5052978;28;20044;-36
2022/11/17 10:59:56;;;;;;;11.05;8.55;;;6.40;99.90;;;;;;5054167;28;20049;-34
2022/11/17 11:02:37;;;;;;;10.05;8.95;;;6.40;99.90;;;;;;5053546;28;20049;-33
2022/11/17 11:05:13;;;;;;;9.90;8.43;;;6.40;99.90;;;;;;5054459;28;20132;-33
2022/11/17 11:07:39;;;;;;;10.57;8.57;;;6.40;99.90;;;;;;5054081;28;20044;-34
2022/11/17 11:10:26;;;;;;;9.43;7.50;;;6.30;99.90;;;;;;5053967;28;20055;-33
2022/11/17 11:13:20;;;;;;;9.38;8.35;;;6.30;99.90;;;;;;5053883;28;20395;-32
2022/11/17 11:15:47;;;;;;;10.32;7.57;;;6.30;99.90;;;;;;5053224;28;20114;-34
2022/11/17 11:18:18;;;;;;;12.38;9.60;;;6.30;99.90;;;;;;5053827;28;20056;-34
2022/11/17 11:20:58;;;;;;;10.30;9.20;;;6.30;99.90;;;;;;5053880;28;20078;-32
2022/11/17 11:23:48;;;;;;;9.68;7.78;;;6.30;99.90;;;;;;5053150;28;20048;-31
2022/11/17 11:26:31;;;;;;;14.07;9.90;;;6.30;99.90;;;;;;5054279;28;20041;-33
2022/11/17 11:29:11;;;;;;;11.65;9.00;;;6.30;99.90;;;;;;5054611;28;20041;-33
2022/11/17 11:31:56;;;;;;;10.45;8.63;;;6.30;99.90;;;;;;5054264;28;20052;-33
2022/11/17 11:34:52;;;;;;;11.52;9.00;;;6.20;99.90;;;;;;5053015;28;20053;-34
2022/11/17 11:37:17;;;;;;;12.80;9.05;;;6.30;99.90;;;;;;5052230;28;20135;-34
2022/11/17 11:40:22;;;;;;;12.10;9.52;;;6.30;99.90;;;;;;5054096;28;20179;-33
2022/11/17 11:43:05;;;;;;;9.93;8.85;;;6.30;99.90;;;;;;5053931;28;20049;-34
2022/11/17 11:45:53;;;;;;;12.55;9.40;;;6.30;99.90;;;;;;5054138;28;20037;-35
2022/11/17 11:48:26;;;;;;;14.68;10.38;;;6.30;99.90;;;;;;5053795;28;20465;-37
2022/11/17 11:51:12;;;;;;;15.05;10.32;;;6.30;99.90;;;;;;5053847;28;20435;-33
2022/11/17 11:54:13;;;;;;;14.50;11.00;;;6.30;99.90;;;;;;5053076;28;20426;-35
2022/11/17 11:56:44;;;;;;;13.25;9.82;;;6.30;99.90;;;;;;5053942;28;20051;-33
2022/11/17 11:59:13;;;;;;;14.68;11.63;;;6.30;99.90;;;;;;5053508;28;20114;-35
2022/11/17 12:01:53;;;;;;;16.60;13.02;;;6.30;99.90;;;;;;5053376;28;20041;-35
2022/11/17 12:04:38;;;;;;;16.45;11.80;;;6.30;99.90;;;;;;5053960;28;20052;-35
2022/11/17 12:07:20;;;;;;;14.80;12.25;;;6.30;99.90;;;;;;5036106;28;20132;-34
2022/11/17 12:10:29;;;;;;;17.35;13.23;;;6.30;99.90;;;;;;5052735;28;20048;-34
2022/11/17 12:12:56;;;;;;;15.38;12.57;;;6.40;99.90;;;;;;5054602;28;20056;-34
2022/11/17 12:15:21;;;;;;;16.50;13.35;;;6.40;99.90;;;;;;5056001;28;20037;-34
2022/11/17 12:17:59;;;;;;;16.35;13.23;;;6.40;99.90;;;;;;5057247;28;20110;-35
2022/11/17 12:20:37;;;;;;;16.85;13.13;;;6.50;99.90;;;;;;5058017;28;20053;-32
2022/11/17 12:23:03;;;;;;;15.90;11.90;;;6.50;99.90;;;;;;5057372;28;20040;-34
2022/11/17 12:25:32;;;;;;;13.27;10.60;;;6.40;99.90;;;;;;5055845;28;20449;-33
2022/11/17 12:27:57;;;;;;;20.65;13.52;;;6.50;99.90;;;;;;5057534;28;20364;-34
2022/11/17 12:30:32;;;;;;;16.60;11.77;;;6.60;99.90;;;;;;5056990;28;20079;-34
2022/11/17 12:32:59;;;;;;;13.25;10.23;;;6.60;99.90;;;;;;5057025;28;20045;-35
2022/11/17 12:35:25;;;;;;;12.60;9.65;;;6.60;99.90;;;;;;5057343;28;20052;-33
2022/11/17 12:38:12;;;;;;;14.30;10.73;;;6.60;99.90;;;;;;5057165;28;20053;-33
2022/11/17 12:40:38;;;;;;;16.02;11.20;;;6.60;99.90;;;;;;5057624;28;20055;-33
2022/11/17 12:43:25;;;;;;;13.02;9.52;;;6.50;99.90;;;;;;5057034;28;20128;-32
2022/11/17 12:46:05;;;;;;;16.77;12.10;;;6.50;99.90;;;;;;5056722;28;20498;-33
2022/11/17 12:48:39;;;;;;;13.55;10.90;;;6.50;99.90;;;;;;5057243;28;20453;-32
2022/11/17 12:51:22;;;;;;;;;;;6.60;99.90;;;;;;5057375;28;20057;-33
2022/11/17 12:54:09;;;;;;;14.43;11.17;;;6.60;99.90;;;;;;5039575;28;20005;-32
2022/11/17 12:56:35;;;;;;;15.70;11.55;;;6.50;99.90;;;;;;5057011;28;20387;-33
2022/11/17 12:59:38;;;;;;;15.55;11.15;;;6.60;99.90;;;;;;5056070;28;20052;-33
2022/11/17 13:02:16;;;;;;;18.35;12.30;;;6.60;99.90;;;;;;5049994;28;20487;-33
2022/11/17 13:05:16;;;;;;;16.27;12.13;;;6.60;99.90;;;;;;5056367;28;20114;-33
2022/11/17 13:07:42;;;;;;;16.40;11.95;;;6.60;99.90;;;;;;5056146;28;20491;-33
2022/11/17 13:10:30;;;;;;;17.10;11.90;;;6.50;99.90;;;;;;5038724;28;20044;-32
2022/11/17 13:13:12;;;;;;;19.00;13.35;;;6.60;99.90;;;;;;5038675;28;20053;-36
2022/11/17 13:15:38;;;;;;;18.23;12.40;;;6.60;99.90;;;;;;5056057;28;20044;-33
2022/11/17 13:18:21;;;;;;;14.57;10.98;;;6.70;99.90;;;;;;5056620;28;20053;-33
2022/11/17 13:20:48;;;;;;;17.30;12.95;;;6.70;99.90;;;;;;5089548;28;20049;-33
2022/11/17 13:23:26;;;;;;;16.90;13.18;;;6.80;99.90;;;;;;5055830;28;20049;-33
2022/11/17 13:26:18;;;;;;;20.13;13.68;;;6.80;99.90;;;;;;5055631;28;20045;-34
2022/11/17 13:28:44;;;;;;;21.90;13.52;;;6.80;99.90;;;;;;5055800;28;20053;-33
2022/11/17 13:31:18;;;;;;;16.85;12.38;;;6.80;99.90;;;;;;5055828;28;20491;-34
2022/11/17 13:34:14;;;;;;;18.80;13.35;;;6.80;99.90;;;;;;5055859;28;20134;-33